Time;durP1;ratioP1;P1;durP2;ratioP2;P2;SDS_P1;SDS_P2;PMS_P1;PMS_P2;Temp;Humidity;BMP_temperature;BMP_pressure;BME280_temperature;BME280_humidity;BME280_pressure;Samples;Min_cycle;Max_cycle;Signal;HPM_P1;HPM_P2
2022/08/24 00:01:36;;;;;;;21.35;16.65;;;;;;;18.85;100.00;101575.00;5091770;28;20032;-73
2022/08/24 00:04:02;;;;;;;25.60;17.25;;;;;;;18.78;100.00;101572.44;5094814;28;20047;-73
2022/08/24 00:06:28;;;;;;;17.92;15.98;;;;;;;18.64;100.00;101573.88;5091726;28;20537;-73
2022/08/24 00:08:55;;;;;;;19.63;17.02;;;;;;;18.62;100.00;101575.19;5091834;28;20024;-73
2022/08/24 00:11:21;;;;;;;21.80;18.05;;;;;;;18.58;100.00;101570.25;5093621;28;20048;-73
2022/08/24 00:13:47;;;;;;;26.10;20.42;;;;;;;18.67;100.00;101572.56;5091649;28;20032;-73
2022/08/24 00:16:14;;;;;;;21.10;18.90;;;;;;;18.64;100.00;101579.31;5094704;28;20083;-73
2022/08/24 00:18:39;;;;;;;19.48;16.45;;;;;;;18.65;100.00;101577.41;5091551;28;20054;-73
2022/08/24 00:21:06;;;;;;;21.63;17.30;;;;;;;18.60;100.00;101577.31;5094530;28;20040;-73
2022/08/24 00:23:32;;;;;;;25.55;19.38;;;;;;;18.63;100.00;101588.50;5091493;28;20364;-73
2022/08/24 00:25:57;;;;;;;25.80;21.60;;;;;;;18.58;100.00;101577.56;5091853;28;20115;-73
2022/08/24 00:28:23;;;;;;;27.38;19.80;;;;;;;18.55;100.00;101588.91;5094690;28;20487;-73
2022/08/24 00:34:10;;;;;;;21.38;17.92;;;;;;;18.35;100.00;101591.28;5091684;28;20047;-73
2022/08/24 00:36:36;;;;;;;23.85;19.17;;;;;;;18.27;100.00;101587.13;5091400;28;20024;-73
2022/08/24 00:39:04;;;;;;;25.50;20.67;;;;;;;18.27;100.00;101589.81;5094457;28;20055;-73
2022/08/24 00:41:30;;;;;;;28.98;21.98;;;;;;;18.36;100.00;101590.22;5073217;28;20290;-74
2022/08/24 00:43:58;;;;;;;26.77;20.67;;;;;;;18.33;100.00;101588.03;5091307;28;20032;-74
2022/08/24 00:49:55;;;;;;;27.80;19.73;;;;;;;18.22;100.00;101596.00;5091743;28;20058;-73
2022/08/24 00:52:26;;;;;;;25.67;21.30;;;;;;;18.18;100.00;101594.81;5094097;28;20044;-73
2022/08/24 00:54:56;;;;;;;32.60;24.13;;;;;;;18.20;100.00;101594.56;5091213;28;20039;-73
2022/08/24 00:57:28;;;;;;;38.13;25.23;;;;;;;18.17;100.00;101593.19;5094276;28;20067;-73
2022/08/24 01:03:15;;;;;;;33.63;24.75;;;;;;;18.23;100.00;101599.50;5091162;28;20101;-74
2022/08/24 01:05:41;;;;;;;35.17;24.58;;;;;;;18.19;100.00;101598.34;5090967;28;20028;-73
2022/08/24 01:08:08;;;;;;;33.58;24.98;;;;;;;18.23;100.00;101597.63;5075339;28;20420;-74
2022/08/24 01:10:42;;;;;;;29.73;22.48;;;;;;;18.16;100.00;101593.41;5090955;28;20039;-73
2022/08/24 01:13:10;;;;;;;28.60;22.60;;;;;;;18.03;100.00;101594.56;5090926;28;20032;-73
2022/08/24 01:15:40;;;;;;;32.22;23.63;;;;;;;17.92;100.00;101587.34;5093869;28;20564;-73
2022/08/24 01:21:01;;;;;;;38.65;26.08;;;;;;;17.83;100.00;101580.69;5094141;28;20408;-73
2022/08/24 01:23:36;;;;;;;35.03;25.10;;;;;;;17.91;100.00;101589.22;5093040;28;20016;-73
2022/08/24 01:26:03;;;;;;;37.40;26.95;;;;;;;17.93;100.00;101595.22;5097243;28;20071;-73
2022/08/24 01:28:29;;;;;;;38.13;26.90;;;;;;;17.92;100.00;101587.34;5094249;28;20127;-73
2022/08/24 01:30:54;;;;;;;34.90;26.05;;;;;;;17.92;100.00;101598.97;5094052;28;20520;-73
2022/08/24 01:33:27;;;;;;;35.47;26.38;;;;;;;17.83;100.00;101595.03;5097303;28;20385;-73
2022/08/24 01:36:33;;;;;;;33.78;25.50;;;;;;;17.83;100.00;101594.22;5094051;28;20489;-73
2022/08/24 01:39:12;;;;;;;30.73;23.88;;;;;;;17.77;100.00;101590.59;5085803;28;20093;-74
2022/08/24 01:41:37;;;;;;;34.97;25.13;;;;;;;17.68;100.00;101572.31;5094021;28;20043;-73
2022/08/24 01:44:03;;;;;;;36.35;26.27;;;;;;;17.71;100.00;101585.34;5097055;28;20043;-73
2022/08/24 01:46:29;;;;;;;33.10;24.75;;;;;;;17.74;100.00;101585.69;5094160;28;20070;-73
2022/08/24 01:48:56;;;;;;;32.75;24.63;;;;;;;17.77;100.00;101585.19;5094099;28;20020;-73
2022/08/24 01:51:22;;;;;;;34.30;25.02;;;;;;;17.75;100.00;101578.38;5096642;28;20123;-73
2022/08/24 01:53:48;;;;;;;36.25;25.40;;;;;;;17.75;100.00;101581.09;5094079;28;20099;-73
2022/08/24 01:56:13;;;;;;;32.22;24.50;;;;;;;17.79;100.00;101587.66;5096982;28;20032;-73
2022/08/24 01:58:47;;;;;;;32.10;25.52;;;;;;;17.84;100.00;101585.03;5093989;28;20090;-73
2022/08/24 02:01:16;;;;;;;38.60;26.27;;;;;;;17.83;100.00;101580.69;5096741;28;20039;-73
2022/08/24 02:03:42;;;;;;;37.83;26.65;;;;;;;17.78;100.00;101580.59;5093748;28;20024;-73
2022/08/24 02:06:07;;;;;;;34.38;24.23;;;;;;;17.74;100.00;101584.88;5093644;28;20502;-73
2022/08/24 02:08:34;;;;;;;33.08;22.23;;;;;;;17.60;100.00;101578.88;5096633;28;20036;-74
2022/08/24 02:11:00;;;;;;;34.45;25.60;;;;;;;17.48;100.00;101576.25;5093346;28;20020;-73
2022/08/24 02:13:26;;;;;;;37.03;28.42;;;;;;;17.50;100.00;101584.13;5096579;28;20105;-74
2022/08/24 02:15:51;;;;;;;42.20;28.70;;;;;;;17.43;100.00;101580.75;5075327;28;20031;-73
2022/08/24 02:18:17;;;;;;;36.80;26.63;;;;;;;17.41;100.00;101586.41;5093893;28;20020;-73
2022/08/24 02:20:43;;;;;;;40.95;29.42;;;;;;;17.36;100.00;101589.00;5095933;28;20687;-73
2022/08/24 02:23:09;;;;;;;35.70;25.75;;;;;;;17.33;100.00;101587.56;5093344;28;20065;-74
2022/08/24 02:25:34;;;;;;;42.05;28.13;;;;;;;17.34;100.00;101583.81;5096419;28;20117;-73
2022/08/24 02:28:00;;;;;;;42.58;29.95;;;;;;;17.39;100.00;101595.81;5093197;28;20480;-73
2022/08/24 02:30:26;;;;;;;41.58;29.85;;;;;;;17.40;100.00;101598.28;5095745;28;20446;-73
2022/08/24 02:32:51;;;;;;;40.35;28.63;;;;;;;17.38;100.00;101603.09;5075449;28;20063;-73
2022/08/24 02:35:17;;;;;;;40.42;26.88;;;;;;;17.38;100.00;101599.56;5074443;28;20035;-73
2022/08/24 02:37:42;;;;;;;53.70;34.60;;;;;;;17.40;100.00;101606.38;5096080;28;20040;-74
2022/08/24 02:40:09;;;;;;;48.95;31.80;;;;;;;17.34;100.00;101601.91;5093006;28;20074;-73
2022/08/24 02:42:35;;;;;;;45.97;31.52;;;;;;;17.28;100.00;101605.59;5077770;28;20605;-73
2022/08/24 02:45:02;;;;;;;48.17;31.35;;;;;;;17.28;100.00;101613.69;5093072;28;20421;-74
2022/08/24 02:47:27;;;;;;;50.75;32.50;;;;;;;17.30;100.00;101608.88;5092896;28;20031;-73
2022/08/24 02:49:52;;;;;;;42.58;29.65;;;;;;;17.28;100.00;101609.09;5096014;28;20188;-74
2022/08/24 02:52:17;;;;;;;38.50;26.77;;;;;;;17.29;100.00;101601.81;5074604;28;20040;-74
2022/08/24 02:54:43;;;;;;;36.72;25.00;;;;;;;17.23;100.00;101600.06;5095779;28;20282;-74
2022/08/24 03:00:30;;;;;;;39.42;26.48;;;;;;;17.08;100.00;101608.72;5092839;28;20131;-74
2022/08/24 03:02:56;;;;;;;40.88;26.77;;;;;;;17.06;100.00;101604.56;5092704;28;20527;-73
2022/08/24 03:05:22;;;;;;;45.47;30.17;;;;;;;17.05;100.00;101611.84;5074508;28;20020;-74
2022/08/24 03:07:48;;;;;;;41.63;28.63;;;;;;;16.91;100.00;101592.41;5095644;28;20036;-74
2022/08/24 03:10:13;;;;;;;44.72;29.83;;;;;;;16.93;100.00;101603.78;5092514;28;20127;-74
2022/08/24 03:12:39;;;;;;;45.97;31.20;;;;;;;16.86;100.00;101589.59;5095539;28;20045;-74
2022/08/24 03:15:08;;;;;;;44.08;28.60;;;;;;;16.80;100.00;101600.53;5092513;28;20031;-73
2022/08/24 03:17:34;;;;;;;44.17;30.85;;;;;;;16.80;100.00;101587.84;5074329;28;20553;-74
2022/08/24 03:20:00;;;;;;;51.05;32.75;;;;;;;16.86;100.00;101603.09;5077646;28;20115;-74
2022/08/24 03:22:26;;;;;;;43.67;29.60;;;;;;;16.82;100.00;101596.53;5092370;28;20031;-74
2022/08/24 03:24:51;;;;;;;52.72;32.80;;;;;;;16.80;100.00;101597.81;5095303;28;20040;-74
2022/08/24 03:27:17;;;;;;;48.17;31.17;;;;;;;16.82;100.00;101596.53;5091110;28;20081;-74
2022/08/24 03:29:42;;;;;;;46.80;29.85;;;;;;;16.82;100.00;101593.00;5093934;28;20028;-74
2022/08/24 03:32:07;;;;;;;48.33;31.63;;;;;;;16.78;100.00;101595.38;5093584;28;20048;-74
2022/08/24 03:34:33;;;;;;;45.30;29.90;;;;;;;16.79;100.00;101591.59;5074173;28;20032;-74
2022/08/24 03:40:22;;;;;;;46.45;27.98;;;;;;;16.76;100.00;101591.22;5092487;28;20050;-74
2022/08/24 03:42:48;;;;;;;48.92;32.50;;;;;;;16.79;100.00;101588.91;5095223;28;20377;-73
2022/08/24 03:45:13;;;;;;;54.45;32.33;;;;;;;16.76;100.00;101586.66;5091856;28;20107;-74
2022/08/24 03:47:39;;;;;;;51.88;33.58;;;;;;;16.69;100.00;101584.06;5076195;28;20495;-74
2022/08/24 03:50:05;;;;;;;55.65;33.70;;;;;;;16.71;100.00;101591.94;5091986;28;20464;-74
2022/08/24 03:52:31;;;;;;;67.82;37.25;;;;;;;16.77;100.00;101592.88;5091867;28;20036;-74
2022/08/24 03:54:56;;;;;;;73.35;42.35;;;;;;;16.80;100.00;101593.25;5095015;28;20051;-74
2022/08/24 03:57:22;;;;;;;58.47;32.70;;;;;;;16.77;100.00;101595.56;5091980;28;20361;-74
2022/08/24 03:59:48;;;;;;;52.85;31.08;;;;;;;16.72;100.00;101596.28;5094682;28;20289;-74
2022/08/24 04:02:13;;;;;;;62.70;35.45;;;;;;;16.73;100.00;101596.06;5091766;28;20027;-74
2022/08/24 04:04:38;;;;;;;51.45;31.13;;;;;;;16.63;100.00;101589.56;5092469;28;20040;-74
2022/08/24 04:07:04;;;;;;;52.93;31.97;;;;;;;16.62;100.00;101604.97;5093986;28;20610;-74
2022/08/24 04:09:29;;;;;;;49.42;30.38;;;;;;;16.50;100.00;101601.44;5092132;28;20270;-74
2022/08/24 04:11:55;;;;;;;48.13;29.40;;;;;;;16.54;100.00;101602.63;5094765;28;20036;-74
2022/08/24 04:14:20;;;;;;;53.08;33.20;;;;;;;16.59;100.00;101602.72;5073453;28;20035;-74
2022/08/24 04:16:46;;;;;;;46.13;30.50;;;;;;;16.55;100.00;101604.25;5094564;28;20040;-73
2022/08/24 04:19:14;;;;;;;46.65;29.77;;;;;;;16.56;100.00;101605.09;5091653;28;20031;-74
2022/08/24 04:21:40;;;;;;;43.85;29.55;;;;;;;16.58;100.00;101605.66;5091604;28;20046;-74
2022/08/24 04:24:07;;;;;;;52.55;30.88;;;;;;;16.50;100.00;101612.25;5094641;28;20403;-74
2022/08/24 04:26:35;;;;;;;43.55;28.20;;;;;;;16.49;100.00;101616.00;5091433;28;20051;-74
2022/08/24 04:29:01;;;;;;;42.28;27.13;;;;;;;16.50;100.00;101614.94;5094379;28;20124;-74
2022/08/24 04:31:28;;;;;;;44.90;27.42;;;;;;;16.51;100.00;101619.28;5073186;28;20028;-74
2022/08/24 04:33:53;;;;;;;43.05;27.25;;;;;;;16.50;100.00;101616.81;5091679;28;20047;-74
2022/08/24 04:36:20;;;;;;;42.35;27.73;;;;;;;16.42;100.00;101609.88;5094096;28;20040;-74
2022/08/24 04:38:47;;;;;;;43.00;28.73;;;;;;;16.37;100.00;101615.16;5091399;28;20043;-74
2022/08/24 04:41:14;;;;;;;43.53;28.20;;;;;;;16.29;100.00;101608.22;5094264;28;20492;-73
2022/08/24 04:43:44;;;;;;;40.63;27.15;;;;;;;16.27;100.00;101613.03;5073137;28;20039;-74
2022/08/24 04:46:14;;;;;;;41.13;25.95;;;;;;;16.27;100.00;101614.91;5094340;28;20089;-74
2022/08/24 04:48:40;;;;;;;64.07;36.50;;;;;;;16.31;100.00;101613.41;5091219;28;20111;-74
2022/08/24 04:51:08;;;;;;;52.03;31.13;;;;;;;16.33;100.00;101611.28;5091065;28;20113;-73
2022/08/24 04:53:34;;;;;;;49.15;30.98;;;;;;;16.36;100.00;101617.03;5094162;28;20595;-74
2022/08/24 04:56:00;;;;;;;53.90;32.55;;;;;;;16.31;100.00;101603.41;5091120;28;20483;-74
2022/08/24 04:58:27;;;;;;;55.58;33.22;;;;;;;16.45;100.00;101622.09;5096408;28;20040;-73
2022/08/24 05:00:53;;;;;;;48.33;32.13;;;;;;;16.48;100.00;101617.06;5094441;28;20465;-74
2022/08/24 05:03:18;;;;;;;52.03;31.05;;;;;;;16.59;100.00;101623.50;5077114;28;20028;-74
2022/08/24 05:05:48;;;;;;;51.33;31.75;;;;;;;16.69;100.00;101631.88;5096774;28;20044;-74
2022/08/24 05:08:14;;;;;;;47.63;30.80;;;;;;;16.76;100.00;101623.63;5094568;28;20028;-73
2022/08/24 05:10:43;;;;;;;48.58;31.55;;;;;;;16.79;100.00;101632.13;5097512;28;20097;-74
2022/08/24 05:13:09;;;;;;;48.40;31.25;;;;;;;16.82;100.00;101620.84;5094448;28;20079;-73
2022/08/24 05:15:39;;;;;;;47.33;29.95;;;;;;;16.90;100.00;101641.25;5097392;28;20047;-74
2022/08/24 05:18:06;;;;;;;50.25;29.13;;;;;;;17.00;100.00;101634.19;5094354;28;20051;-74
2022/08/24 05:20:32;;;;;;;46.47;29.52;;;;;;;17.07;100.00;101625.97;5094254;28;20047;-73
2022/08/24 05:22:57;;;;;;;50.45;31.63;;;;;;;17.12;100.00;101614.47;5097377;28;20492;-74
2022/08/24 05:25:22;;;;;;;54.35;32.47;;;;;;;17.40;100.00;101635.31;5094397;28;20421;-74
2022/08/24 05:31:11;;;;;;;81.20;42.35;;;;;;;17.80;100.00;101640.69;5094312;28;20038;-74
2022/08/24 05:33:37;;;;;;;75.03;41.88;;;;;;;17.91;100.00;101635.22;5097121;28;20381;-74
2022/08/24 05:36:03;;;;;;;69.63;42.90;;;;;;;18.09;100.00;101639.59;5093987;28;20031;-73
2022/08/24 05:38:30;;;;;;;76.93;46.80;;;;;;;18.28;100.00;101632.09;5094119;28;20495;-74
2022/08/24 05:40:55;;;;;;;73.32;42.55;;;;;;;18.58;100.00;101643.41;5096884;28;20044;-74
2022/08/24 05:43:20;;;;;;;78.57;46.00;;;;;;;18.86;100.00;101631.66;5094010;28;20047;-74
2022/08/24 05:45:46;;;;;;;63.92;40.20;;;;;;;19.41;100.00;101643.47;5097070;28;20792;-74
2022/08/24 05:48:11;;;;;;;61.65;38.47;;;;;;;20.01;100.00;101640.63;5076320;28;20114;-74
2022/08/24 05:50:36;;;;;;;60.67;36.45;;;;;;;20.61;100.00;101638.69;5095731;28;20107;-74
2022/08/24 05:53:03;;;;;;;55.20;35.87;;;;;;;21.29;100.00;101642.34;5095925;28;20032;-74
2022/08/24 05:55:29;;;;;;;54.20;34.72;;;;;;;21.91;100.00;101636.81;5094269;28;20270;-74
2022/08/24 05:57:55;;;;;;;53.50;34.08;;;;;;;22.47;99.92;101644.22;5097371;28;20044;-74
2022/08/24 06:00:20;;;;;;;59.53;36.67;;;;;;;23.00;95.87;101639.25;5093629;28;20073;-74
2022/08/24 06:02:45;;;;;;;54.75;36.65;;;;;;;23.49;93.40;101640.13;5096799;28;20085;-74
2022/08/24 06:05:11;;;;;;;59.13;36.13;;;;;;;23.99;92.00;101640.94;5093673;28;20024;-74
2022/08/24 06:07:36;;;;;;;50.55;35.53;;;;;;;24.64;90.14;101649.72;5093557;28;20274;-74
2022/08/24 06:10:02;;;;;;;53.60;36.43;;;;;;;25.09;86.13;101652.28;5095620;28;20380;-74
2022/08/24 06:12:27;;;;;;;60.05;40.05;;;;;;;25.56;83.25;101654.16;5075378;28;20282;-74
2022/08/24 06:14:53;;;;;;;59.13;42.97;;;;;;;25.89;83.35;101661.38;5096480;28;20441;-74
2022/08/24 06:17:18;;;;;;;63.00;45.03;;;;;;;26.18;82.11;101654.88;5075272;28;20281;-74
2022/08/24 06:19:44;;;;;;;64.53;45.77;;;;;;;26.45;81.19;101659.69;5093388;28;20391;-74
2022/08/24 06:22:09;;;;;;;65.57;45.25;;;;;;;26.79;79.42;101664.81;5096452;28;20282;-74
2022/08/24 06:27:19;;;;;;;58.80;42.65;;;;;;;27.52;74.26;101668.63;5096664;28;20047;-74
2022/08/24 06:33:06;;;;;;;55.63;39.85;;;;;;;28.80;69.49;101672.69;5092674;28;20124;-74
2022/08/24 06:35:32;;;;;;;48.23;37.53;;;;;;;29.19;66.70;101677.41;5093230;28;20099;-73
2022/08/24 06:37:57;;;;;;;46.80;38.23;;;;;;;29.46;65.21;101673.59;5093126;28;20277;-74
2022/08/24 06:40:24;;;;;;;45.93;38.27;;;;;;;29.69;64.29;101675.09;5096283;28;20035;-73
2022/08/24 06:42:49;;;;;;;43.42;33.85;;;;;;;29.88;63.32;101681.13;5093132;28;20408;-73
2022/08/24 06:45:15;;;;;;;48.07;34.97;;;;;;;30.13;60.61;101682.31;5096030;28;20062;-74
2022/08/24 06:47:40;;;;;;;42.05;34.15;;;;;;;30.47;59.27;101681.44;5074866;28;20274;-73
2022/08/24 06:50:07;;;;;;;47.95;34.67;;;;;;;30.92;57.94;101675.44;5093038;28;20035;-74
2022/08/24 06:52:34;;;;;;;46.17;33.88;;;;;;;31.10;57.23;101677.00;5095296;28;20047;-73
2022/08/24 06:54:59;;;;;;;42.63;33.25;;;;;;;31.46;55.99;101689.50;5092802;28;20103;-73
2022/08/24 06:57:25;;;;;;;42.45;32.65;;;;;;;31.72;55.37;101687.41;5095729;28;20044;-74
2022/08/24 06:59:50;;;;;;;49.37;33.40;;;;;;;31.84;55.04;101696.94;5092833;28;20055;-74
2022/08/24 07:02:17;;;;;;;36.93;30.80;;;;;;;32.30;52.09;101691.16;5095654;28;20836;-74
2022/08/24 07:04:43;;;;;;;39.67;30.38;;;;;;;32.80;51.36;101698.47;5092916;28;20035;-73
2022/08/24 07:07:08;;;;;;;44.40;29.95;;;;;;;33.34;49.66;101694.72;5092446;28;20040;-74
2022/08/24 07:09:34;;;;;;;40.50;30.00;;;;;;;33.39;48.69;101684.19;5095626;28;20040;-74
2022/08/24 07:12:00;;;;;;;37.40;29.55;;;;;;;33.90;47.58;101703.19;5092479;28;20298;-74
2022/08/24 07:14:26;;;;;;;34.85;27.77;;;;;;;34.26;46.33;101703.06;5095772;28;20059;-73
2022/08/24 07:16:51;;;;;;;34.25;27.92;;;;;;;34.50;45.28;101701.34;5092542;28;20024;-73
2022/08/24 07:19:16;;;;;;;36.07;27.57;;;;;;;34.44;44.54;101703.56;5092651;28;20074;-74
2022/08/24 07:21:42;;;;;;;35.10;27.50;;;;;;;34.46;44.25;101710.38;5095439;28;20377;-74
2022/08/24 07:24:07;;;;;;;34.30;27.27;;;;;;;34.52;44.48;101712.91;5092417;28;20031;-73
2022/08/24 07:26:33;;;;;;;33.63;26.83;;;;;;;34.77;43.43;101715.19;5095395;28;20507;-74
2022/08/24 07:29:05;;;;;;;32.25;25.10;;;;;;;35.18;42.25;101706.66;5092384;28;20043;-74
2022/08/24 07:34:52;;;;;;;32.42;25.45;;;;;;;36.78;38.89;101694.19;5092612;28;20089;-74
2022/08/24 07:37:17;;;;;;;28.97;24.97;;;;;;;37.13;37.73;101705.09;5094017;28;20438;-74
2022/08/24 07:39:43;;;;;;;33.77;25.57;;;;;;;37.51;36.73;101700.50;5093612;28;20028;-74
2022/08/24 07:45:32;;;;;;;28.98;23.08;;;;;;;38.76;34.18;101705.63;5092627;28;20071;-74
2022/08/24 07:47:57;;;;;;;27.83;22.80;;;;;;;38.59;33.74;101712.63;5092078;28;20384;-74
2022/08/24 07:50:23;;;;;;;26.17;23.08;;;;;;;38.72;33.58;101704.75;5095129;28;20044;-74
2022/08/24 07:52:48;;;;;;;28.67;21.35;;;;;;;38.62;33.55;101711.06;5091862;28;20039;-74
2022/08/24 07:55:14;;;;;;;27.70;21.63;;;;;;;37.92;33.58;101698.69;5094907;28;20127;-74
2022/08/24 07:57:39;;;;;;;23.38;19.27;;;;;;;38.55;33.89;101710.97;5091946;28;20114;-74
2022/08/24 08:00:09;;;;;;;23.77;21.08;;;;;;;39.24;32.85;101708.41;5091755;28;20551;-73
2022/08/24 08:05:58;;;;;;;22.55;18.52;;;;;;;40.04;30.12;101709.25;5092151;28;20050;-74
2022/08/24 08:08:28;;;;;;;23.40;19.33;;;;;;;40.51;30.87;101705.41;5095049;28;20028;-74
2022/08/24 08:10:53;;;;;;;21.98;19.60;;;;;;;40.33;29.41;101709.34;5091803;28;20149;-74
2022/08/24 08:13:19;;;;;;;27.25;19.90;;;;;;;40.39;29.92;101714.19;5094669;28;20535;-74
2022/08/24 08:15:44;;;;;;;21.15;18.90;;;;;;;40.71;28.34;101710.59;5073603;28;20047;-74
2022/08/24 08:18:11;;;;;;;26.30;20.38;;;;;;;41.38;28.06;101710.63;5094226;28;20047;-74
2022/08/24 08:26:45;;;;;;;23.50;15.15;;;;;;;42.49;25.63;101707.31;5091661;28;19958;-73
2022/08/24 08:29:12;;;;;;;18.95;14.98;;;;;;;42.22;25.30;101718.34;5091630;28;20417;-74
2022/08/24 08:31:39;;;;;;;17.55;13.18;;;;;;;41.44;26.62;101716.63;5094416;28;20040;-73
2022/08/24 08:34:05;;;;;;;21.27;16.17;;;;;;;41.68;26.43;101714.97;5094695;28;20031;-74
2022/08/24 08:36:31;;;;;;;17.98;15.90;;;;;;;42.31;26.16;101711.06;5098150;28;20542;-73
2022/08/24 08:38:56;;;;;;;16.92;14.02;;;;;;;42.63;25.14;101710.84;5094918;28;20036;-74
2022/08/24 08:41:48;;;;;;;16.83;10.68;;;;;;;42.84;26.25;101711.88;5095192;28;20039;-74
2022/08/24 08:44:44;;;;;;;14.90;12.18;;;;;;;43.08;25.26;101724.16;5058411;28;20493;-74
2022/08/24 08:47:32;;;;;;;21.42;11.27;;;;;;;43.77;24.23;101718.22;5095157;28;20128;-74
2022/08/24 08:50:14;;;;;;;15.23;12.30;;;;;;;44.24;24.12;101715.59;5094977;28;20081;-74
2022/08/24 08:52:46;;;;;;;13.52;9.18;;;;;;;43.94;24.14;101718.38;5094743;28;20044;-74
2022/08/24 08:55:46;;;;;;;15.65;10.80;;;;;;;42.41;25.86;101717.00;5097825;28;20433;-74
2022/08/24 08:58:33;;;;;;;16.00;8.88;;;;;;;41.88;26.06;101712.44;5094755;28;20063;-74
2022/08/24 09:01:13;;;;;;;10.88;7.47;;;;;;;42.31;25.46;101715.88;5097800;28;20123;-73
2022/08/24 09:04:13;;;;;;;9.63;6.07;;;;;;;42.67;25.57;101717.25;5095034;28;20063;-74
2022/08/24 09:07:00;;;;;;;10.70;6.90;;;;;;;40.88;27.57;101714.66;5065069;28;20051;-74
2022/08/24 09:09:55;;;;;;;13.23;9.88;;;;;;;40.00;28.49;101711.25;5094590;28;20131;-74
2022/08/24 09:12:29;;;;;;;9.50;7.07;;;;;;;40.01;27.01;101715.66;5097495;28;20050;-74
2022/08/24 09:15:06;;;;;;;9.48;6.20;;;;;;;39.00;29.17;101720.97;5094624;28;20166;-74
2022/08/24 09:17:59;;;;;;;7.00;6.30;;;;;;;38.11;31.28;101708.88;5097518;28;20040;-73
2022/08/24 09:20:48;;;;;;;11.38;7.65;;;;;;;37.38;32.48;101707.50;5076371;28;20031;-73
2022/08/24 09:23:38;;;;;;;11.43;8.43;;;;;;;37.29;32.77;101701.38;5097405;28;20047;-73
2022/08/24 09:26:23;;;;;;;11.57;9.23;;;;;;;37.23;31.19;101707.25;5094645;28;20093;-73
2022/08/24 09:29:11;;;;;;;10.80;7.10;;;;;;;36.70;32.08;101711.09;5097451;28;20048;-73
2022/08/24 09:31:55;;;;;;;8.93;7.53;;;;;;;35.50;35.09;101713.00;5094170;28;20024;-73
2022/08/24 09:34:51;;;;;;;12.02;7.05;;;;;;;34.25;38.49;101708.97;5097373;28;20048;-73
2022/08/24 09:37:31;;;;;;;10.73;8.27;;;;;;;33.76;38.24;101709.09;5094231;28;20534;-74
2022/08/24 09:40:16;;;;;;;11.07;8.20;;;;;;;33.73;38.58;101712.56;5097186;28;20044;-73
2022/08/24 09:42:41;;;;;;;8.32;7.20;;;;;;;33.44;38.71;101706.16;5094222;28;20064;-74
2022/08/24 09:45:35;;;;;;;10.82;7.18;;;;;;;33.32;39.56;101713.69;5093740;28;20056;-74
2022/08/24 09:48:12;;;;;;;10.73;7.85;;;;;;;33.31;39.73;101710.09;5094253;28;20089;-73
2022/08/24 09:50:58;;;;;;;12.25;7.47;;;;;;;33.25;39.14;101709.50;5094034;28;20107;-73
2022/08/24 09:57:20;;;;;;;7.18;5.32;;;;;;;32.67;41.82;101705.09;5094169;28;20035;-73
2022/08/24 10:00:04;;;;;;;16.58;6.05;;;;;;;32.63;41.33;101712.50;5093787;28;20035;-73
2022/08/24 10:02:39;;;;;;;8.27;5.50;;;;;;;32.80;41.15;101697.69;5095380;28;20028;-73
2022/08/24 10:05:11;;;;;;;7.63;5.95;;;;;;;32.69;41.42;101699.25;5093976;28;20036;-73
2022/08/24 10:07:51;;;;;;;;;;;;;;;32.87;41.29;101703.44;5094224;28;20035;-73
2022/08/24 10:10:40;;;;;;;7.88;6.30;;;;;;;32.33;42.02;101700.75;5096951;28;19955;-73
2022/08/24 10:13:23;;;;;;;8.05;6.00;;;;;;;31.73;44.97;101694.56;5093601;28;20035;-70
2022/08/24 10:16:07;;;;;;;7.63;5.50;;;;;;;31.76;44.28;101692.25;5096642;28;20048;-73
2022/08/24 10:18:55;;;;;;;8.13;5.65;;;;;;;31.94;43.38;101691.81;5093661;28;20036;-73
2022/08/24 10:25:07;;;;;;;6.75;4.63;;;;;;;31.98;43.24;101686.41;5093716;28;20084;-75
2022/08/24 10:27:39;;;;;;;7.35;4.65;;;;;;;31.73;43.61;101682.69;5096323;28;20044;-74
2022/08/24 10:33:32;;;;;;;7.68;4.05;;;;;;;31.67;45.11;101682.06;5093513;28;20097;-73
2022/08/24 10:36:45;;;;;;;8.90;4.50;;;;;;;31.38;44.30;101677.38;5093239;28;20039;-75
2022/08/24 10:49:35;;;;;;;8.73;4.30;;;;;;;31.53;44.66;101675.97;5093097;28;20503;-74
2022/08/24 10:55:26;;;;;;;5.07;3.63;;;;;;;31.27;44.66;101678.09;5092786;28;20085;-74
2022/08/24 11:01:27;;;;;;;10.82;4.43;;;;;;;31.54;45.46;101666.53;5093369;28;20494;-74
2022/08/24 11:04:03;;;;;;;6.15;3.70;;;;;;;32.06;44.82;101666.13;5074767;28;20035;-75
2022/08/24 11:06:50;;;;;;;5.00;3.55;;;;;;;32.82;41.66;101662.91;5095664;28;20050;-75
2022/08/24 11:09:16;;;;;;;12.65;4.15;;;;;;;34.62;37.72;101663.16;5074045;28;20035;-77
2022/08/24 11:11:45;;;;;;;5.70;3.60;;;;;;;35.69;35.10;101663.75;5074468;28;20538;-74
2022/08/24 11:17:33;;;;;;;9.10;4.10;;;;;;;35.76;34.07;101651.94;5092857;28;20127;-73
2022/08/24 11:19:59;;;;;;;6.05;3.92;;;;;;;34.84;37.57;101660.97;5095622;28;20661;-73
2022/08/24 11:22:36;;;;;;;7.13;3.83;;;;;;;33.77;39.07;101660.75;5074401;28;20032;-73
2022/08/24 11:25:09;;;;;;;4.72;3.45;;;;;;;32.88;41.96;101655.19;5095566;28;20052;-74
2022/08/24 11:27:39;;;;;;;5.53;3.55;;;;;;;32.78;42.10;101648.13;5092805;28;20039;-73
2022/08/24 11:30:11;;;;;;;5.82;4.03;;;;;;;32.51;40.34;101657.88;5092529;28;20032;-74
2022/08/24 11:32:45;;;;;;;4.90;4.07;;;;;;;32.10;40.67;101656.03;5094235;28;20044;-73
2022/08/24 11:38:33;;;;;;;8.13;4.03;;;;;;;32.45;40.65;101644.63;5092353;28;20078;-73
2022/08/24 11:41:11;;;;;;;4.53;3.45;;;;;;;32.17;41.15;101642.44;5092548;28;20021;-73
2022/08/24 11:43:55;;;;;;;4.47;3.60;;;;;;;31.98;43.50;101655.94;5095606;28;20052;-74
2022/08/24 11:49:53;;;;;;;6.53;3.40;;;;;;;31.56;43.09;101642.13;5092097;28;20034;-73
2022/08/24 11:56:09;;;;;;;5.18;3.35;;;;;;;31.84;44.21;101641.59;5092339;28;20046;-74
2022/08/24 12:02:02;;;;;;;9.90;3.33;;;;;;;31.80;42.95;101635.09;5092438;28;20039;-74
2022/08/24 12:04:31;;;;;;;;;;;;;;;31.91;42.99;101628.03;5092369;28;20024;-73
2022/08/24 12:07:34;;;;;;;5.20;3.08;;;;;;;31.95;43.39;101631.72;5093844;28;19970;-72
2022/08/24 12:10:20;;;;;;;4.68;3.15;;;;;;;32.24;42.44;101623.28;5091792;28;20100;-73
2022/08/24 12:16:32;;;;;;;3.85;2.95;;;;;;;32.12;42.75;101634.34;5091981;28;20043;-73
2022/08/24 12:18:58;;;;;;;4.68;3.35;;;;;;;32.16;41.86;101634.47;5094735;28;20119;-73
2022/08/24 12:21:27;;;;;;;4.73;3.60;;;;;;;32.54;41.76;101631.47;5091553;28;20107;-73
2022/08/24 12:24:11;;;;;;;5.15;3.30;;;;;;;32.53;41.77;101627.88;5076609;28;20036;-73
2022/08/24 12:26:48;;;;;;;4.05;3.25;;;;;;;32.30;41.60;101624.72;5091761;28;20035;-72
2022/08/24 12:29:27;;;;;;;3.53;2.88;;;;;;;32.15;42.11;101625.34;5091957;28;20063;-73
2022/08/24 12:31:58;;;;;;;4.05;3.30;;;;;;;32.25;41.99;101635.19;5092347;28;20076;-73
2022/08/24 12:34:31;;;;;;;4.20;2.80;;;;;;;32.19;42.86;101629.06;5091472;28;20441;-72
2022/08/24 12:37:11;;;;;;;5.30;3.05;;;;;;;32.43;42.25;101619.22;5094438;28;20081;-73
2022/08/24 12:40:05;;;;;;;4.40;2.90;;;;;;;32.75;41.76;101623.06;5091481;28;20058;-74
2022/08/24 12:42:44;;;;;;;3.30;3.00;;;;;;;33.05;40.32;101618.94;5094467;28;20068;-73
2022/08/24 12:45:13;;;;;;;4.82;3.50;;;;;;;33.09;39.22;101619.84;5091420;28;20024;-73
2022/08/24 12:47:41;;;;;;;7.18;3.33;;;;;;;33.11;39.46;101620.31;5094364;28;20492;-73
2022/08/24 12:50:13;;;;;;;4.65;2.88;;;;;;;33.70;38.34;101613.38;5091344;28;20426;-74
2022/08/24 12:52:48;;;;;;;4.07;2.75;;;;;;;34.75;37.59;101606.34;5094254;28;20149;-74
2022/08/24 12:55:27;;;;;;;3.95;2.83;;;;;;;34.77;37.29;101609.56;5091218;28;20135;-72
2022/08/24 12:58:07;;;;;;;6.22;3.20;;;;;;;34.55;37.13;101612.16;5073183;28;20082;-73